Time;durP1;ratioP1;P1;durP2;ratioP2;P2;SDS_P1;SDS_P2;PMS_P1;PMS_P2;Temp;Humidity;BMP_temperature;BMP_pressure;BME280_temperature;BME280_humidity;BME280_pressure;Samples;Min_cycle;Max_cycle;Signal;HPM_P1;HPM_P2
2022/12/11 00:00:38;;;;;;;;;;;-0.60;99.90;;;;;;4945884;28;19929;-73
2022/12/11 00:03:04;;;;;;;;;;;-0.50;99.90;;;;;;4947428;28;20235;-73
2022/12/11 00:05:29;;;;;;;;;;;-0.50;99.90;;;;;;4934716;29;19931;-73
2022/12/11 00:07:56;;;;;;;;;;;-0.50;99.90;;;;;;4940185;28;19930;-73
2022/12/11 00:10:21;;;;;;;;;;;-0.50;99.90;;;;;;4945955;28;19974;-73
2022/12/11 00:12:47;;;;;;;;;;;-0.50;99.90;;;;;;4929717;28;19962;-73
2022/12/11 00:15:13;;;;;;;;;;;-0.50;99.90;;;;;;4924667;28;19977;-73
2022/12/11 00:17:38;;;;;;;;;;;-0.50;99.90;;;;;;4954928;28;19926;-73
2022/12/11 00:20:04;;;;;;;;;;;-0.50;99.90;;;;;;4947704;28;19953;-73
2022/12/11 00:22:30;;;;;;;;;;;-0.50;99.90;;;;;;4935740;28;19933;-73
2022/12/11 00:24:55;;;;;;;;;;;-0.50;99.90;;;;;;4953366;28;19922;-73
2022/12/11 00:27:21;;;;;;;;;;;-0.50;99.90;;;;;;4933053;28;19925;-73
2022/12/11 00:29:47;;;;;;;;;;;-0.50;99.90;;;;;;4938560;29;19922;-73
2022/12/11 00:32:12;;;;;;;;;;;-0.50;99.90;;;;;;4959978;28;19937;-73
2022/12/11 00:34:38;;;;;;;;;;;-0.50;99.90;;;;;;4946132;28;19922;-73
2022/12/11 00:37:03;;;;;;;;;;;-0.50;99.90;;;;;;4930236;28;20033;-73
2022/12/11 00:39:29;;;;;;;;;;;-0.50;99.90;;;;;;4945902;28;19937;-73
2022/12/11 00:41:54;;;;;;;;;;;-0.50;99.90;;;;;;4924440;28;20399;-73
2022/12/11 00:44:20;;;;;;;;;;;-0.50;99.90;;;;;;4945950;28;19922;-73
2022/12/11 00:46:46;;;;;;;;;;;-0.50;99.90;;;;;;4930647;28;19923;-73
2022/12/11 00:49:11;;;;;;;;;;;-0.50;99.90;;;;;;4929727;28;20417;-73
2022/12/11 00:51:37;;;;;;;;;;;-0.50;99.90;;;;;;4930709;28;19926;-73
2022/12/11 00:54:03;;;;;;;;;;;-0.50;99.90;;;;;;4933166;28;19926;-73
2022/12/11 00:56:28;;;;;;;;;;;-0.40;99.90;;;;;;4931457;28;19929;-73
2022/12/11 00:58:54;;;;;;;;;;;-0.50;99.90;;;;;;4947821;28;19926;-73
2022/12/11 01:01:21;;;;;;;;;;;-0.40;99.90;;;;;;4950802;28;19926;-73
2022/12/11 01:03:47;;;;;;;;;;;-0.40;99.90;;;;;;4954514;28;19926;-73
2022/12/11 01:06:17;;;;;;;;;;;-0.40;99.90;;;;;;4967240;28;20406;-73
2022/12/11 01:08:43;;;;;;;;;;;-0.40;99.90;;;;;;4957638;28;19933;-73
2022/12/11 01:11:10;;;;;;;;;;;-0.40;99.90;;;;;;4965568;28;19922;-73
2022/12/11 01:13:36;;;;;;;;;;;-0.40;99.90;;;;;;4968094;28;20366;-73
2022/12/11 01:16:09;;;;;;;;;;;-0.40;99.90;;;;;;4947684;28;19926;-73
2022/12/11 01:18:35;;;;;;;;;;;-0.40;99.90;;;;;;4949744;28;19985;-73
2022/12/11 01:21:04;;;;;;;;;;;-0.40;99.90;;;;;;4963106;28;20382;-73
2022/12/11 01:23:30;;;;;;;;;;;-0.40;99.90;;;;;;4961530;28;19925;-73
2022/12/11 01:25:55;;;;;;;;;;;-0.40;99.90;;;;;;4958526;28;19926;-73
2022/12/11 01:28:21;;;;;;;;;;;-0.40;99.90;;;;;;4959217;28;20347;-73
2022/12/11 01:30:46;;;;;;;;;;;-0.30;99.90;;;;;;4963526;28;19981;-73
2022/12/11 01:33:12;;;;;;;;;;;-0.30;99.90;;;;;;4932361;29;19934;-73
2022/12/11 01:35:38;;;;;;;;;;;-0.30;99.90;;;;;;4961118;28;20643;-73
2022/12/11 01:38:04;;;;;;;;;;;-0.30;99.90;;;;;;4959509;28;19926;-73
2022/12/11 01:40:29;;;;;;;;;;;-0.40;99.90;;;;;;4953022;28;20397;-73
2022/12/11 01:42:55;;;;;;;;;;;-0.30;99.90;;;;;;4949536;28;19927;-73
2022/12/11 01:45:20;;;;;;;;;;;-0.30;99.90;;;;;;4953663;28;20086;-73
2022/12/11 01:47:51;;;;;;;;;;;-0.30;99.90;;;;;;4933408;28;20466;-73
2022/12/11 01:50:16;;;;;;;;;;;-0.30;99.90;;;;;;4950275;28;19926;-73
2022/12/11 01:52:43;;;;;;;;;;;-0.30;99.90;;;;;;4939414;28;19933;-73
2022/12/11 01:55:09;;;;;;;;;;;-0.30;99.90;;;;;;4948446;28;19929;-73
2022/12/11 01:57:38;;;;;;;;;;;-0.20;99.90;;;;;;4931221;29;19926;-73
2022/12/11 02:00:04;;;;;;;;;;;-0.20;99.90;;;;;;4961636;28;19949;-73
2022/12/11 02:02:30;;;;;;;;;;;-0.20;99.90;;;;;;4950791;28;19926;-73
2022/12/11 02:04:57;;;;;;;;;;;-0.20;99.90;;;;;;4933744;29;19938;-73
2022/12/11 02:07:22;;;;;;;;;;;-0.20;99.90;;;;;;4948163;28;19933;-73
2022/12/11 02:09:48;;;;;;;;;;;-0.10;99.90;;;;;;4931431;29;19931;-73
2022/12/11 02:12:23;;;;;;;;;;;-0.10;99.90;;;;;;4948408;28;19931;-73
2022/12/11 02:15:09;;;;;;;;;;;-0.10;99.90;;;;;;4963223;28;20355;-73
2022/12/11 02:18:07;;;;;;;;;;;-0.10;99.90;;;;;;4951213;28;20012;-73
2022/12/11 02:20:36;;;;;;;;;;;-0.10;99.90;;;;;;4940259;28;19927;-73
2022/12/11 02:23:09;;;;;;;;;;;0.00;99.90;;;;;;4961424;28;20259;-73
2022/12/11 02:25:38;;;;;;;;;;;0.00;99.90;;;;;;4962372;28;19930;-73
2022/12/11 02:28:16;;;;;;;;;;;0.00;99.90;;;;;;4940698;28;20354;-73
2022/12/11 02:30:43;;;;;;;;;;;0.00;99.90;;;;;;4951698;28;20017;-73
2022/12/11 02:33:10;;;;;;;;;;;0.00;99.90;;;;;;4948873;28;19927;-73
2022/12/11 02:35:38;;;;;;;;;;;0.00;99.90;;;;;;4949762;28;19926;-73
2022/12/11 02:38:09;;;;;;;;;;;0.00;99.90;;;;;;4948385;28;19922;-73
2022/12/11 02:40:37;;;;;;;;;;;0.00;99.90;;;;;;4934680;28;20557;-73
2022/12/11 02:43:05;;;;;;;;;;;0.00;99.90;;;;;;4947220;28;19926;-73
2022/12/11 02:45:31;;;;;;;;;;;0.00;99.90;;;;;;4949176;28;20002;-73
2022/12/11 02:47:57;;;;;;;;;;;0.00;99.90;;;;;;4948230;28;19927;-73
2022/12/11 02:50:23;;;;;;;;;;;0.00;99.90;;;;;;4950242;28;19973;-73
2022/12/11 02:52:50;;;;;;;;;;;0.00;99.90;;;;;;4949988;28;19927;-73
2022/12/11 02:55:16;;;;;;;;;;;0.00;99.90;;;;;;4950365;28;19923;-73
2022/12/11 02:58:11;;;;;;;;;;;0.00;99.90;;;;;;4949961;28;19977;-73
2022/12/11 03:00:37;;;;;;;;;;;0.00;99.90;;;;;;4929544;28;20398;-73
2022/12/11 03:03:03;;;;;;;;;;;0.00;99.90;;;;;;4948426;28;20008;-73
2022/12/11 03:05:29;;;;;;;;;;;0.00;99.90;;;;;;4945998;28;20004;-73
2022/12/11 03:07:55;;;;;;;;;;;0.00;99.90;;;;;;4949471;28;19933;-73
2022/12/11 03:10:20;;;;;;;;;;;0.00;99.90;;;;;;4943020;28;19932;-73
2022/12/11 03:12:48;;;;;;;;;;;0.00;99.90;;;;;;4951500;28;19937;-73
2022/12/11 03:15:15;;;;;;;;;;;0.00;99.90;;;;;;4977667;28;19926;-73
2022/12/11 03:17:48;;;;;;;;;;;0.00;99.90;;;;;;4959348;28;19922;-73
2022/12/11 03:20:53;;;;;;;;;;;0.00;99.90;;;;;;4948345;28;20029;-73
2022/12/11 03:23:27;;;;;;;;;;;-0.10;99.90;;;;;;4890287;29;20026;-73
2022/12/11 03:25:58;;;;;;;;;;;-0.10;99.90;;;;;;4906901;29;20486;-73
2022/12/11 03:28:37;;;;;;;;;;;-0.10;99.90;;;;;;4921425;28;19926;-73
2022/12/11 03:31:07;;;;;;;;;;;-0.10;99.90;;;;;;4948014;28;20324;-73
2022/12/11 03:33:45;;;;;;;;;;;-0.10;99.90;;;;;;4949156;28;19946;-73
2022/12/11 03:36:13;;;;;;;;;;;-0.10;99.90;;;;;;4946205;28;20371;-73
2022/12/11 03:38:59;;;;;;;;;;;-0.10;99.90;;;;;;4948545;28;19942;-73
2022/12/11 03:41:26;;;;;;;;;;;-0.10;99.90;;;;;;4946389;28;19923;-73
2022/12/11 03:43:54;;;;;;;;;;;-0.10;99.90;;;;;;4930381;28;19981;-73
2022/12/11 03:46:20;;;;;;;;;;;-0.10;99.90;;;;;;4945592;28;20397;-73
2022/12/11 03:48:47;;;;;;;;;;;-0.10;99.90;;;;;;4932344;28;19922;-73
2022/12/11 03:51:14;;;;;;;;;;;-0.10;99.90;;;;;;4947142;28;20584;-73
2022/12/11 03:53:39;;;;;;;;;;;-0.10;99.90;;;;;;4949444;28;19934;-73
2022/12/11 03:56:07;;;;;;;;;;;-0.10;99.90;;;;;;4948637;28;20414;-73
2022/12/11 03:58:32;;;;;;;;;;;-0.10;99.90;;;;;;4947601;28;20396;-73
2022/12/11 04:00:58;;;;;;;;;;;-0.10;99.90;;;;;;4948482;28;20017;-73
2022/12/11 04:03:24;;;;;;;;;;;-0.10;99.90;;;;;;4946178;28;20026;-73
2022/12/11 04:05:50;;;;;;;;;;;-0.10;99.90;;;;;;4946849;28;19981;-73
2022/12/11 04:08:16;;;;;;;;;;;-0.10;99.90;;;;;;4946171;28;19922;-73
2022/12/11 04:10:42;;;;;;;;;;;-0.10;99.90;;;;;;4930495;29;19927;-73
2022/12/11 04:13:08;;;;;;;;;;;-0.10;99.90;;;;;;4948774;28;19981;-73
2022/12/11 04:15:34;;;;;;;;;;;-0.10;99.90;;;;;;4936695;28;19922;-73
2022/12/11 04:26:15;;;;;;;;;;;-0.10;99.90;;;;;;4952404;28;19923;-73
2022/12/11 04:28:41;;;;;;;;;;;-0.10;99.90;;;;;;4947272;28;19984;-73
2022/12/11 04:31:11;;;;;;;;;;;-0.10;99.90;;;;;;4953386;28;19926;-73
2022/12/11 04:33:36;;;;;;;;;;;-0.10;99.90;;;;;;4946269;28;19926;-73
2022/12/11 04:36:02;;;;;;;;;;;0.00;99.90;;;;;;4945098;28;20291;-73
2022/12/11 04:38:27;;;;;;;;;;;0.00;99.90;;;;;;4951260;28;20029;-73
2022/12/11 04:41:00;;;;;;;;;;;0.00;99.90;;;;;;4949691;28;20080;-73
2022/12/11 04:43:26;;;;;;;;;;;0.00;99.90;;;;;;4953911;28;19973;-73
2022/12/11 04:46:09;;;;;;;;;;;0.00;99.90;;;;;;4957133;28;19952;-73
2022/12/11 04:48:35;;;;;;;;;;;0.00;99.90;;;;;;4957646;28;19922;-73
2022/12/11 04:51:00;;;;;;;;;;;0.00;99.90;;;;;;4949443;28;19926;-73
2022/12/11 04:53:26;;;;;;;;;;;0.00;99.90;;;;;;4933604;28;19933;-73
2022/12/11 04:55:52;;;;;;;;;;;0.00;99.90;;;;;;4948300;28;20112;-73
2022/12/11 04:58:18;;;;;;;;;;;0.00;99.90;;;;;;4948999;28;20043;-73
2022/12/11 05:00:44;;;;;;;;;;;0.00;99.90;;;;;;4952155;28;19926;-73
2022/12/11 05:03:09;;;;;;;;;;;0.00;99.90;;;;;;4949469;28;19931;-73
2022/12/11 05:05:35;;;;;;;;;;;0.00;99.90;;;;;;4959577;28;20280;-73
2022/12/11 05:08:00;;;;;;;;;;;0.00;99.90;;;;;;4935522;28;19930;-73
2022/12/11 05:10:26;;;;;;;;;;;0.00;99.90;;;;;;4949331;28;19926;-73
2022/12/11 05:12:51;;;;;;;;;;;0.00;99.90;;;;;;4950038;28;20414;-73
2022/12/11 05:15:17;;;;;;;;;;;0.00;99.90;;;;;;4944206;28;19929;-73
2022/12/11 05:17:43;;;;;;;;;;;0.00;99.90;;;;;;4951590;28;19930;-73
2022/12/11 05:20:09;;;;;;;;;;;0.00;99.90;;;;;;4948304;28;19950;-73
2022/12/11 05:22:35;;;;;;;;;;;0.00;99.90;;;;;;4953406;28;20356;-73
2022/12/11 05:25:01;;;;;;;;;;;0.00;99.90;;;;;;4945199;28;20346;-73
2022/12/11 05:27:26;;;;;;;;;;;0.00;99.90;;;;;;4934672;28;19923;-73
2022/12/11 05:29:52;;;;;;;;;;;0.00;99.90;;;;;;4959865;28;20350;-73
2022/12/11 05:32:17;;;;;;;;;;;0.00;99.90;;;;;;4950741;28;19927;-73
2022/12/11 05:34:43;;;;;;;;;;;0.00;99.90;;;;;;4948943;28;20470;-73
2022/12/11 05:37:09;;;;;;;;;;;0.00;99.90;;;;;;4957404;28;20343;-73
2022/12/11 05:39:34;;;;;;;;;;;0.00;99.90;;;;;;4948517;28;20013;-73
2022/12/11 05:42:00;;;;;;;;;;;0.00;99.90;;;;;;4960920;28;19974;-73
2022/12/11 05:44:26;;;;;;;;;;;0.00;99.90;;;;;;4948544;28;19922;-73
2022/12/11 05:46:51;;;;;;;;;;;0.00;99.90;;;;;;4947505;28;19926;-73
2022/12/11 05:49:17;;;;;;;;;;;0.00;99.90;;;;;;4948183;28;19939;-73
2022/12/11 05:51:42;;;;;;;;;;;0.00;99.90;;;;;;4948643;28;19922;-73
2022/12/11 05:54:08;;;;;;;;;;;0.00;99.90;;;;;;4948361;28;19922;-73
2022/12/11 05:56:34;;;;;;;;;;;0.00;99.90;;;;;;4952446;28;19926;-73
2022/12/11 05:59:00;;;;;;;;;;;0.00;99.90;;;;;;4948251;28;19934;-73
2022/12/11 06:01:28;;;;;;;;;;;0.00;99.90;;;;;;4951081;28;20455;-73
2022/12/11 06:03:54;;;;;;;;;;;0.00;99.90;;;;;;4958380;28;20016;-73
2022/12/11 06:06:20;;;;;;;;;;;0.00;99.90;;;;;;4946916;28;19953;-73
2022/12/11 06:08:51;;;;;;;;;;;0.00;99.90;;;;;;4946177;28;20536;-73
2022/12/11 06:11:17;;;;;;;;;;;0.00;99.90;;;;;;4948264;28;19935;-73
2022/12/11 06:13:42;;;;;;;;;;;0.00;99.90;;;;;;4965935;28;20390;-73
2022/12/11 06:16:08;;;;;;;;;;;0.00;99.90;;;;;;4963230;28;19930;-73
2022/12/11 06:18:35;;;;;;;;;;;0.00;99.90;;;;;;4966432;28;20353;-73
2022/12/11 06:21:00;;;;;;;;;;;0.00;99.90;;;;;;4965173;28;19937;-73
2022/12/11 06:23:26;;;;;;;;;;;0.00;99.90;;;;;;4959558;28;19921;-73
2022/12/11 06:25:52;;;;;;;;;;;0.00;99.90;;;;;;4937426;28;19927;-73
2022/12/11 06:28:17;;;;;;;;;;;0.00;99.90;;;;;;4983166;28;20327;-72
2022/12/11 06:30:43;;;;;;;;;;;0.00;99.90;;;;;;4966919;28;19932;-73
2022/12/11 06:33:09;;;;;;;;;;;0.00;99.90;;;;;;4966516;28;19922;-73
2022/12/11 06:35:35;;;;;;;;;;;0.00;99.90;;;;;;4962905;28;19990;-73
2022/12/11 06:38:00;;;;;;;;;;;0.00;99.90;;;;;;4957872;28;20441;-73
2022/12/11 06:40:26;;;;;;;;;;;0.00;99.90;;;;;;4961531;28;19926;-73
2022/12/11 06:42:53;;;;;;;;;;;0.00;99.90;;;;;;4961459;28;20298;-73
2022/12/11 06:45:18;;;;;;;;;;;0.00;99.90;;;;;;4964825;28;20013;-73
2022/12/11 06:47:44;;;;;;;;;;;0.10;99.90;;;;;;4946697;28;19962;-73
2022/12/11 06:50:10;;;;;;;;;;;0.10;99.90;;;;;;4964739;28;19926;-73
2022/12/11 06:52:36;;;;;;;;;;;0.10;99.90;;;;;;4974279;28;20012;-73
2022/12/11 06:55:01;;;;;;;;;;;0.10;99.90;;;;;;4967577;28;20016;-73
2022/12/11 06:57:27;;;;;;;;;;;0.10;99.90;;;;;;4983119;28;19929;-73
2022/12/11 06:59:52;;;;;;;;;;;0.10;99.90;;;;;;4936763;28;19965;-73
2022/12/11 07:02:18;;;;;;;;;;;0.10;99.90;;;;;;4974447;28;20389;-73
2022/12/11 07:04:44;;;;;;;;;;;0.10;99.90;;;;;;4951722;28;19931;-73
2022/12/11 07:07:10;;;;;;;;;;;0.10;99.90;;;;;;4955052;28;19926;-73
2022/12/11 07:09:37;;;;;;;;;;;0.10;99.90;;;;;;4946332;28;20014;-73
2022/12/11 07:12:03;;;;;;;;;;;0.10;99.90;;;;;;4964540;28;20430;-73
2022/12/11 07:14:29;;;;;;;;;;;0.10;99.90;;;;;;4950653;28;19937;-73
2022/12/11 07:16:55;;;;;;;;;;;0.10;99.90;;;;;;4947176;28;20012;-73
2022/12/11 07:19:20;;;;;;;;;;;0.10;99.90;;;;;;4948398;28;20018;-73
2022/12/11 07:21:46;;;;;;;;;;;0.10;99.90;;;;;;4964802;28;19926;-73
2022/12/11 07:24:12;;;;;;;;;;;0.10;99.90;;;;;;4962353;28;19945;-73
2022/12/11 07:26:37;;;;;;;;;;;0.10;99.90;;;;;;4961810;28;19922;-72
2022/12/11 07:29:03;;;;;;;;;;;0.10;99.90;;;;;;4949390;28;19926;-73
2022/12/11 07:31:29;;;;;;;;;;;0.10;99.90;;;;;;4965733;28;19973;-73
2022/12/11 07:34:02;;;;;;;;;;;0.10;99.90;;;;;;4964333;28;19949;-73
2022/12/11 07:36:28;;;;;;;;;;;0.10;99.90;;;;;;4962630;28;20434;-73
2022/12/11 07:38:54;;;;;;;;;;;0.10;99.90;;;;;;4939090;28;19922;-73
2022/12/11 07:41:20;;;;;;;;;;;0.10;99.90;;;;;;4958379;28;19953;-73
2022/12/11 07:43:46;;;;;;;;;;;0.10;99.90;;;;;;4936807;28;19922;-73
2022/12/11 07:46:16;;;;;;;;;;;0.10;99.90;;;;;;4952866;28;19945;-73
2022/12/11 07:48:42;;;;;;;;;;;0.10;99.90;;;;;;4936213;28;20017;-73
2022/12/11 07:51:08;;;;;;;;;;;0.10;99.90;;;;;;4953770;28;19933;-73
2022/12/11 07:53:33;;;;;;;;;;;0.10;99.90;;;;;;4942381;28;19926;-73
2022/12/11 07:55:59;;;;;;;;;;;0.10;99.90;;;;;;4934252;28;19930;-72
2022/12/11 07:58:25;;;;;;;;;;;0.10;99.90;;;;;;4945942;28;19922;-72
2022/12/11 08:00:50;;;;;;;;;;;0.10;99.90;;;;;;4944636;28;19927;-72
2022/12/11 08:03:16;;;;;;;;;;;0.10;99.90;;;;;;4968492;28;20131;-73
2022/12/11 08:05:47;;;;;;;;;;;0.10;99.90;;;;;;4946009;28;20017;-73
2022/12/11 08:08:12;;;;;;;;;;;0.10;99.90;;;;;;4959232;28;19934;-73
2022/12/11 08:10:38;;;;;;;;;;;0.10;99.90;;;;;;4953939;28;20392;-73
2022/12/11 08:13:04;;;;;;;;;;;0.10;99.90;;;;;;4953445;28;19958;-73
2022/12/11 08:15:29;;;;;;;;;;;0.10;99.90;;;;;;4942764;28;19973;-72
2022/12/11 08:17:55;;;;;;;;;;;0.10;99.90;;;;;;4949482;28;19922;-72
2022/12/11 08:20:20;;;;;;;;;;;0.20;99.90;;;;;;4959751;28;20005;-72
2022/12/11 08:22:46;;;;;;;;;;;0.20;99.90;;;;;;4936090;28;20120;-73
2022/12/11 08:25:11;;;;;;;;;;;0.20;99.90;;;;;;4959665;28;19929;-73
2022/12/11 08:27:37;;;;;;;;;;;0.20;99.90;;;;;;4972368;28;20318;-73
2022/12/11 08:30:03;;;;;;;;;;;0.30;99.90;;;;;;4964614;28;19930;-73
2022/12/11 08:32:28;;;;;;;;;;;0.20;99.90;;;;;;4967088;28;19930;-73
2022/12/11 08:34:54;;;;;;;;;;;0.30;99.90;;;;;;4941956;28;20327;-73
2022/12/11 08:37:20;;;;;;;;;;;0.30;99.90;;;;;;4967413;28;20022;-73
2022/12/11 08:39:45;;;;;;;;;;;0.30;99.90;;;;;;4943072;28;20487;-73
2022/12/11 08:42:11;;;;;;;;;;;0.30;99.90;;;;;;4930645;29;19922;-73
2022/12/11 08:44:36;;;;;;;;;;;0.30;99.90;;;;;;4943600;28;20293;-73
2022/12/11 08:47:02;;;;;;;;;;;0.30;99.90;;;;;;4952226;28;19933;-73
2022/12/11 08:49:28;;;;;;;;;;;0.30;99.90;;;;;;4958649;28;19922;-73
2022/12/11 08:51:53;;;;;;;;;;;0.30;99.90;;;;;;4934410;28;20009;-73
2022/12/11 08:54:19;;;;;;;;;;;0.30;99.90;;;;;;4949997;28;19927;-73
2022/12/11 08:56:44;;;;;;;;;;;0.40;99.90;;;;;;4933217;28;19990;-73
2022/12/11 08:59:10;;;;;;;;;;;0.40;99.90;;;;;;4940785;28;20406;-73
2022/12/11 09:01:36;;;;;;;;;;;0.40;99.90;;;;;;4949716;28;19926;-73
2022/12/11 09:04:01;;;;;;;;;;;0.40;99.90;;;;;;4937263;28;19922;-73
2022/12/11 09:06:28;;;;;;;;;;;0.50;99.90;;;;;;4949090;28;19937;-73
2022/12/11 09:08:54;;;;;;;;;;;0.50;99.90;;;;;;4966941;28;19976;-73
2022/12/11 09:11:22;;;;;;;;;;;0.50;99.90;;;;;;4958808;28;19990;-73
2022/12/11 09:13:47;;;;;;;;;;;0.50;99.90;;;;;;4956565;28;19961;-73
2022/12/11 09:16:14;;;;;;;;;;;0.60;99.90;;;;;;4945550;28;19922;-73
2022/12/11 09:18:40;;;;;;;;;;;0.60;99.90;;;;;;4948779;28;19949;-73
2022/12/11 09:21:07;;;;;;;;;;;0.60;99.90;;;;;;4947516;28;19934;-73
2022/12/11 09:23:33;;;;;;;;;;;0.60;99.90;;;;;;4950627;28;19932;-74
2022/12/11 09:25:59;;;;;;;;;;;0.70;99.90;;;;;;4961857;28;20244;-74
2022/12/11 09:28:24;;;;;;;;;;;0.70;99.90;;;;;;4967922;28;19921;-74
2022/12/11 09:30:51;;;;;;;;;;;0.70;99.90;;;;;;4951639;28;19930;-74
2022/12/11 09:33:16;;;;;;;;;;;0.70;99.90;;;;;;4966837;28;19930;-73
2022/12/11 09:35:42;;;;;;;;;;;0.80;99.90;;;;;;4958938;28;19926;-74
2022/12/11 09:38:08;;;;;;;;;;;0.80;99.90;;;;;;4957398;28;19930;-74
2022/12/11 09:40:38;;;;;;;;;;;0.80;99.90;;;;;;4957148;28;20383;-74
2022/12/11 09:43:36;;;;;;;;;;;0.80;99.90;;;;;;4959814;28;20013;-72
2022/12/11 09:46:05;;;;;;;;;;;0.90;99.90;;;;;;4917053;28;19998;-73
2022/12/11 09:48:31;;;;;;;;;;;0.90;99.90;;;;;;4966072;28;19942;-73
2022/12/11 09:50:57;;;;;;;;;;;0.90;99.90;;;;;;4950593;28;19937;-73
2022/12/11 09:53:26;;;;;;;;;;;0.90;99.90;;;;;;4957096;28;19934;-74
2022/12/11 09:56:02;;;;;;;;;;;0.90;99.90;;;;;;4964342;28;19926;-73
2022/12/11 09:58:38;;;;;;;;;;;1.00;99.90;;;;;;4954666;28;20291;-74
2022/12/11 10:01:22;;;;;;;;;;;1.00;99.90;;;;;;4951450;28;19926;-73
2022/12/11 10:04:12;;;;;;;;;;;1.00;99.90;;;;;;4957592;28;19926;-73
2022/12/11 10:06:40;;;;;;;;;;;1.10;99.90;;;;;;4951648;28;19927;-74
2022/12/11 10:09:06;;;;;;;;;;;1.10;99.90;;;;;;4956126;28;20391;-74
2022/12/11 10:11:31;;;;;;;;;;;1.10;99.90;;;;;;4941658;28;20359;-73
2022/12/11 10:14:00;;;;;;;;;;;1.10;99.90;;;;;;4958615;28;19992;-74
2022/12/11 10:16:32;;;;;;;;;;;1.10;99.90;;;;;;4956998;28;19934;-74
2022/12/11 10:18:59;;;;;;;;;;;1.20;99.90;;;;;;4949498;28;19926;-73
2022/12/11 10:21:25;;;;;;;;;;;1.20;99.90;;;;;;4950651;28;20041;-73
2022/12/11 10:23:59;;;;;;;;;;;1.20;99.90;;;;;;4961213;28;19926;-73
2022/12/11 10:26:26;;;;;;;;;;;1.20;99.90;;;;;;4944426;28;19929;-73
2022/12/11 10:28:52;;;;;;;;;;;1.20;99.90;;;;;;4951913;28;19926;-74
2022/12/11 10:31:39;;;;;;;;;;;1.20;99.90;;;;;;4953686;28;19989;-73
2022/12/11 10:34:18;;;;;;;;;;;1.20;99.90;;;;;;4963321;28;19930;-73
2022/12/11 10:36:44;;;;;;;;;;;1.20;99.90;;;;;;4952703;28;19934;-74
2022/12/11 10:39:17;;;;;;;;;;;1.10;99.90;;;;;;4973113;28;19921;-72
2022/12/11 10:41:44;;;;;;;;;;;1.10;99.90;;;;;;4969921;28;19922;-72
2022/12/11 10:44:15;;;;;;;;;;;1.10;99.90;;;;;;4959664;28;19927;-72
2022/12/11 10:46:40;;;;;;;;;;;1.10;99.90;;;;;;4950856;28;19926;-72
2022/12/11 10:49:18;;;;;;;;;;;1.20;99.90;;;;;;4954394;28;19926;-72
2022/12/11 10:51:44;;;;;;;;;;;1.20;99.90;;;;;;4948374;28;20038;-72
2022/12/11 10:54:28;;;;;;;;;;;1.20;99.90;;;;;;4966163;28;19968;-72
2022/12/11 10:56:54;;;;;;;;;;;1.20;99.90;;;;;;4961795;28;20390;-72
2022/12/11 10:59:32;;;;;;;;;;;1.20;99.90;;;;;;4931012;29;19932;-72
2022/12/11 11:01:57;;;;;;;;;;;1.20;99.90;;;;;;4931473;28;19926;-72
2022/12/11 11:04:28;;;;;;;;;;;1.20;99.90;;;;;;4936203;28;19926;-72
2022/12/11 11:07:10;;;;;;;;;;;1.20;99.90;;;;;;4964083;28;19965;-72
2022/12/11 11:09:35;;;;;;;;;;;1.20;99.90;;;;;;4945572;28;19945;-71
2022/12/11 11:12:01;;;;;;;;;;;1.20;99.90;;;;;;4937816;28;19926;-72
2022/12/11 11:14:27;;;;;;;;;;;1.20;99.90;;;;;;4949993;28;20044;-72
2022/12/11 11:16:54;;;;;;;;;;;1.20;99.90;;;;;;4961399;28;20294;-72
2022/12/11 11:19:25;;;;;;;;;;;1.20;99.90;;;;;;4961867;28;19977;-72
2022/12/11 11:21:56;;;;;;;;;;;1.20;99.90;;;;;;4945473;28;19923;-72
2022/12/11 11:24:25;;;;;;;;;;;1.20;99.90;;;;;;4955891;28;19929;-72
2022/12/11 11:26:51;;;;;;;;;;;1.20;99.90;;;;;;4950543;28;19926;-72
2022/12/11 11:29:30;;;;;;;;;;;1.20;99.90;;;;;;4941499;28;20009;-72
2022/12/11 11:32:00;;;;;;;;;;;1.20;99.90;;;;;;4943816;28;19922;-72
2022/12/11 11:34:29;;;;;;;;;;;1.20;99.90;;;;;;4965263;28;19926;-71
2022/12/11 11:36:56;;;;;;;;;;;1.30;99.90;;;;;;4942625;28;20024;-72
2022/12/11 11:39:26;;;;;;;;;;;1.30;99.90;;;;;;4955405;28;19980;-72
2022/12/11 11:41:59;;;;;;;;;;;1.30;99.90;;;;;;4950965;28;19960;-72
2022/12/11 11:44:46;;;;;;;;;;;1.40;99.90;;;;;;4958389;28;19929;-72
2022/12/11 11:47:30;;;;;;;;;;;1.40;99.90;;;;;;4943567;28;19985;-72
2022/12/11 11:50:17;;;;;;;;;;;1.40;99.90;;;;;;4962454;28;19926;-72
2022/12/11 11:52:52;;;;;;;;;;;1.40;99.90;;;;;;4957777;28;19931;-72
2022/12/11 11:55:37;;;;;;;;;;;1.50;99.90;;;;;;4938291;28;19930;-71
2022/12/11 11:58:09;;;;;;;;;;;1.50;99.90;;;;;;4950494;28;19934;-72
2022/12/11 12:00:35;;;;;;;;;;;1.50;99.90;;;;;;4954400;28;19926;-72
2022/12/11 12:03:04;;;;;;;;;;;1.50;99.90;;;;;;4942313;28;20000;-73
2022/12/11 12:05:49;;;;;;;;;;;1.50;99.90;;;;;;4985603;28;20359;-73
2022/12/11 12:08:41;;;;;;;;;;;1.60;99.90;;;;;;4957189;28;19969;-73
2022/12/11 12:11:28;;;;;;;;;;;1.50;99.90;;;;;;4944167;28;19985;-73
2022/12/11 12:14:12;;;;;;;;;;;1.60;99.90;;;;;;4962063;28;19926;-73
2022/12/11 12:16:58;;;;;;;;;;;1.60;99.90;;;;;;4965321;28;20084;-74
2022/12/11 12:19:27;;;;;;;;;;;1.60;99.90;;;;;;4963587;28;19977;-73
2022/12/11 12:22:07;;;;;;;;;;;1.60;99.90;;;;;;4937718;29;19927;-73
2022/12/11 12:24:51;;;;;;;;;;;1.60;99.90;;;;;;4962394;28;20354;-74
2022/12/11 12:27:22;;;;;;;;;;;1.60;99.90;;;;;;4953917;28;19937;-73
2022/12/11 12:29:51;;;;;;;;;;;1.60;99.90;;;;;;4950366;28;20389;-74
2022/12/11 12:32:35;;;;;;;;;;;1.60;99.90;;;;;;4959335;28;20411;-74
2022/12/11 12:35:13;;;;;;;;;;;1.60;99.90;;;;;;4956774;28;20326;-73
2022/12/11 12:37:44;;;;;;;;;;;1.60;99.90;;;;;;4943963;28;19926;-74
2022/12/11 12:40:10;;;;;;;;;;;1.60;99.90;;;;;;4955652;28;20177;-73
2022/12/11 12:42:53;;;;;;;;;;;1.60;99.90;;;;;;4953716;28;19926;-73
2022/12/11 12:45:22;;;;;;;;;;;1.60;99.90;;;;;;4933155;28;20025;-73
2022/12/11 12:47:49;;;;;;;;;;;1.60;99.90;;;;;;4953402;28;19926;-73
2022/12/11 12:50:20;;;;;;;;;;;1.60;99.90;;;;;;4951760;28;19933;-75
2022/12/11 12:52:46;;;;;;;;;;;1.50;99.90;;;;;;4956811;28;19926;-74
2022/12/11 12:55:17;;;;;;;;;;;1.50;99.90;;;;;;4936278;28;19927;-74
2022/12/11 12:58:00;;;;;;;;;;;1.50;99.90;;;;;;4946954;28;19953;-74
2022/12/11 13:00:25;;;;;;;;;;;1.50;99.90;;;;;;4950718;28;19934;-73
2022/12/11 13:02:52;;;;;;;;;;;1.50;99.90;;;;;;4940942;28;19922;-72
2022/12/11 13:05:20;;;;;;;;;;;1.50;99.90;;;;;;4955501;28;20069;-73
2022/12/11 13:07:54;;;;;;;;;;;1.50;99.90;;;;;;4943904;28;19953;-73
2022/12/11 13:10:25;;;;;;;;;;;1.50;99.90;;;;;;4954388;28;19967;-74
2022/12/11 13:12:53;;;;;;;;;;;1.50;99.90;;;;;;4958502;28;19994;-73
2022/12/11 13:15:25;;;;;;;;;;;1.50;99.90;;;;;;4953551;28;19922;-74
2022/12/11 13:17:51;;;;;;;;;;;1.50;99.90;;;;;;4963660;28;19931;-73
2022/12/11 13:20:18;;;;;;;;;;;1.60;99.90;;;;;;4935589;28;20287;-73
2022/12/11 13:23:07;;;;;;;;;;;1.50;99.90;;;;;;4958087;28;20343;-73
2022/12/11 13:25:45;;;;;;;;;;;1.50;99.90;;;;;;4954047;28;19933;-74
2022/12/11 13:28:20;;;;;;;;;;;1.50;99.90;;;;;;4943128;28;20571;-74
2022/12/11 13:30:57;;;;;;;;;;;1.50;99.90;;;;;;4952982;28;19982;-73
2022/12/11 13:33:23;;;;;;;;;;;1.40;99.90;;;;;;4964959;28;20531;-73
2022/12/11 13:36:02;;;;;;;;;;;1.40;99.90;;;;;;4936206;28;19922;-74
2022/12/11 13:38:28;;;;;;;;;;;1.40;99.90;;;;;;4951042;28;19923;-73
2022/12/11 13:40:54;;;;;;;;;;;1.40;99.90;;;;;;4924902;29;19977;-73
2022/12/11 13:43:27;;;;;;;;;;;1.40;99.90;;;;;;4935488;28;19929;-74
2022/12/11 13:45:54;;;;;;;;;;;1.40;99.90;;;;;;4934341;28;19927;-73
2022/12/11 13:48:27;;;;;;;;;;;1.30;99.90;;;;;;4949627;28;20488;-73
2022/12/11 13:50:54;;;;;;;;;;;1.20;99.90;;;;;;4949649;28;20460;-73
2022/12/11 13:53:20;;;;;;;;;;;1.20;99.90;;;;;;4949506;28;19962;-73
2022/12/11 13:55:54;;;;;;;;;;;1.20;99.90;;;;;;4948960;28;19974;-73
2022/12/11 13:58:20;;;;;;;;;;;1.10;99.90;;;;;;4953084;28;20014;-73
2022/12/11 14:01:05;;;;;;;;;;;1.10;99.90;;;;;;4933700;29;19923;-73
2022/12/11 14:03:31;;;;;;;;;;;1.00;99.90;;;;;;4951873;28;19930;-73
2022/12/11 14:05:57;;;;;;;;;;;1.00;99.90;;;;;;4968746;28;19923;-73
2022/12/11 14:08:26;;;;;;;;;;;0.90;99.90;;;;;;4933031;29;19933;-74
2022/12/11 14:10:53;;;;;;;;;;;0.90;99.90;;;;;;4934223;28;19926;-73
2022/12/11 14:13:26;;;;;;;;;;;0.90;99.90;;;;;;4934846;28;19927;-73
2022/12/11 14:15:57;;;;;;;;;;;0.90;99.90;;;;;;4947671;28;19929;-74
2022/12/11 14:18:25;;;;;;;;;;;0.80;99.90;;;;;;4961105;28;20440;-74
2022/12/11 14:20:57;;;;;;;;;;;0.80;99.90;;;;;;4952241;28;19942;-75
2022/12/11 14:23:25;;;;;;;;;;;0.80;99.90;;;;;;4957796;28;20210;-73
2022/12/11 14:25:55;;;;;;;;;;;0.70;99.90;;;;;;4962418;28;20271;-73
2022/12/11 14:28:26;;;;;;;;;;;0.70;99.90;;;;;;4952353;28;19926;-73
2022/12/11 14:30:54;;;;;;;;;;;0.60;99.90;;;;;;4955460;28;19957;-74
2022/12/11 14:33:21;;;;;;;;;;;0.50;99.90;;;;;;4955843;28;19926;-74
2022/12/11 14:35:48;;;;;;;;;;;0.60;99.90;;;;;;4933767;28;19938;-73
2022/12/11 14:38:19;;;;;;;;;;;0.50;99.90;;;;;;4951445;28;20368;-74
2022/12/11 14:40:48;;;;;;;;;;;0.50;99.90;;;;;;4958319;28;20076;-74
2022/12/11 14:43:20;;;;;;;;;;;0.50;99.90;;;;;;4944666;28;19989;-73